sensor_id;sensor_type;location;lat;lon;timestamp;P1;durP1;ratioP1;P2;durP2;ratioP2
73650;SDS011;61944;52.538;6.108;2023-04-15T00:00:21;11.52;;;5.45;;
73650;SDS011;61944;52.538;6.108;2023-04-15T00:02:47;10.18;;;5.53;;
73650;SDS011;61944;52.538;6.108;2023-04-15T00:05:12;12.25;;;7.07;;
73650;SDS011;61944;52.538;6.108;2023-04-15T00:07:37;10.68;;;5.68;;
73650;SDS011;61944;52.538;6.108;2023-04-15T00:10:04;10.40;;;5.80;;
73650;SDS011;61944;52.538;6.108;2023-04-15T00:12:30;9.60;;;5.80;;
73650;SDS011;61944;52.538;6.108;2023-04-15T00:14:55;9.02;;;5.40;;
73650;SDS011;61944;52.538;6.108;2023-04-15T00:17:21;9.98;;;6.18;;
73650;SDS011;61944;52.538;6.108;2023-04-15T00:19:46;8.82;;;6.00;;
73650;SDS011;61944;52.538;6.108;2023-04-15T00:22:12;7.28;;;4.97;;
73650;SDS011;61944;52.538;6.108;2023-04-15T00:24:38;8.68;;;5.65;;
73650;SDS011;61944;52.538;6.108;2023-04-15T00:27:03;12.55;;;5.97;;
73650;SDS011;61944;52.538;6.108;2023-04-15T00:29:29;12.52;;;6.30;;
73650;SDS011;61944;52.538;6.108;2023-04-15T00:31:55;11.13;;;5.70;;
73650;SDS011;61944;52.538;6.108;2023-04-15T00:34:24;10.02;;;6.85;;
73650;SDS011;61944;52.538;6.108;2023-04-15T00:36:49;12.82;;;6.03;;
73650;SDS011;61944;52.538;6.108;2023-04-15T00:39:15;7.50;;;5.55;;
73650;SDS011;61944;52.538;6.108;2023-04-15T00:41:41;12.73;;;7.00;;
73650;SDS011;61944;52.538;6.108;2023-04-15T00:44:07;16.02;;;6.30;;
73650;SDS011;61944;52.538;6.108;2023-04-15T00:46:39;8.95;;;6.05;;
73650;SDS011;61944;52.538;6.108;2023-04-15T00:49:07;10.55;;;5.82;;
73650;SDS011;61944;52.538;6.108;2023-04-15T00:51:32;11.02;;;5.80;;
73650;SDS011;61944;52.538;6.108;2023-04-15T00:54:00;10.98;;;6.43;;
73650;SDS011;61944;52.538;6.108;2023-04-15T00:56:27;9.88;;;5.43;;
73650;SDS011;61944;52.538;6.108;2023-04-15T00:58:53;10.95;;;5.72;;
73650;SDS011;61944;52.538;6.108;2023-04-15T01:01:19;14.63;;;5.43;;
73650;SDS011;61944;52.538;6.108;2023-04-15T01:03:46;11.57;;;5.38;;
73650;SDS011;61944;52.538;6.108;2023-04-15T01:06:14;11.23;;;6.35;;
73650;SDS011;61944;52.538;6.108;2023-04-15T01:08:39;9.25;;;5.80;;
73650;SDS011;61944;52.538;6.108;2023-04-15T01:11:05;13.52;;;7.72;;
73650;SDS011;61944;52.538;6.108;2023-04-15T01:13:31;8.05;;;5.88;;
73650;SDS011;61944;52.538;6.108;2023-04-15T01:15:58;10.00;;;6.63;;
73650;SDS011;61944;52.538;6.108;2023-04-15T01:18:23;14.15;;;6.57;;
73650;SDS011;61944;52.538;6.108;2023-04-15T01:20:49;11.23;;;5.93;;
73650;SDS011;61944;52.538;6.108;2023-04-15T01:23:15;13.38;;;6.47;;
73650;SDS011;61944;52.538;6.108;2023-04-15T01:25:41;12.80;;;7.65;;
73650;SDS011;61944;52.538;6.108;2023-04-15T01:28:08;13.98;;;6.93;;
73650;SDS011;61944;52.538;6.108;2023-04-15T01:30:34;11.57;;;7.22;;
73650;SDS011;61944;52.538;6.108;2023-04-15T01:33:00;11.38;;;7.15;;
73650;SDS011;61944;52.538;6.108;2023-04-15T01:35:25;12.40;;;7.07;;
73650;SDS011;61944;52.538;6.108;2023-04-15T01:37:52;13.57;;;7.25;;
73650;SDS011;61944;52.538;6.108;2023-04-15T01:40:18;8.80;;;6.10;;
73650;SDS011;61944;52.538;6.108;2023-04-15T01:42:44;11.75;;;6.50;;
73650;SDS011;61944;52.538;6.108;2023-04-15T01:45:10;11.00;;;6.97;;
73650;SDS011;61944;52.538;6.108;2023-04-15T01:47:36;9.60;;;6.28;;
73650;SDS011;61944;52.538;6.108;2023-04-15T01:50:02;16.98;;;6.65;;
73650;SDS011;61944;52.538;6.108;2023-04-15T01:52:27;11.38;;;6.38;;
73650;SDS011;61944;52.538;6.108;2023-04-15T01:54:52;11.40;;;6.75;;
73650;SDS011;61944;52.538;6.108;2023-04-15T01:57:18;10.20;;;6.25;;
73650;SDS011;61944;52.538;6.108;2023-04-15T01:59:43;10.10;;;7.57;;
73650;SDS011;61944;52.538;6.108;2023-04-15T02:02:08;8.88;;;7.07;;
73650;SDS011;61944;52.538;6.108;2023-04-15T02:04:34;14.68;;;6.57;;
73650;SDS011;61944;52.538;6.108;2023-04-15T02:06:59;15.45;;;7.13;;
73650;SDS011;61944;52.538;6.108;2023-04-15T02:09:25;10.25;;;6.40;;
73650;SDS011;61944;52.538;6.108;2023-04-15T02:11:51;9.82;;;6.68;;
73650;SDS011;61944;52.538;6.108;2023-04-15T02:14:17;11.50;;;7.20;;
73650;SDS011;61944;52.538;6.108;2023-04-15T02:16:43;10.57;;;7.25;;
73650;SDS011;61944;52.538;6.108;2023-04-15T02:19:08;8.38;;;6.68;;
73650;SDS011;61944;52.538;6.108;2023-04-15T02:21:33;11.63;;;7.78;;
73650;SDS011;61944;52.538;6.108;2023-04-15T02:23:59;9.85;;;7.38;;
73650;SDS011;61944;52.538;6.108;2023-04-15T02:26:26;13.70;;;7.38;;
73650;SDS011;61944;52.538;6.108;2023-04-15T02:28:52;21.20;;;7.88;;
73650;SDS011;61944;52.538;6.108;2023-04-15T02:31:17;11.85;;;8.25;;
73650;SDS011;61944;52.538;6.108;2023-04-15T02:33:42;11.15;;;7.20;;
73650;SDS011;61944;52.538;6.108;2023-04-15T02:36:08;13.00;;;8.25;;
73650;SDS011;61944;52.538;6.108;2023-04-15T02:38:35;11.20;;;7.75;;
73650;SDS011;61944;52.538;6.108;2023-04-15T02:41:02;14.02;;;8.68;;
73650;SDS011;61944;52.538;6.108;2023-04-15T02:43:27;15.68;;;8.07;;
73650;SDS011;61944;52.538;6.108;2023-04-15T02:45:52;17.52;;;8.60;;
73650;SDS011;61944;52.538;6.108;2023-04-15T02:48:18;12.57;;;7.75;;
73650;SDS011;61944;52.538;6.108;2023-04-15T02:50:44;13.82;;;9.63;;
73650;SDS011;61944;52.538;6.108;2023-04-15T02:53:10;13.93;;;8.13;;
73650;SDS011;61944;52.538;6.108;2023-04-15T02:55:37;14.35;;;8.02;;
73650;SDS011;61944;52.538;6.108;2023-04-15T02:58:02;13.23;;;9.02;;
73650;SDS011;61944;52.538;6.108;2023-04-15T03:00:28;9.77;;;7.10;;
73650;SDS011;61944;52.538;6.108;2023-04-15T03:02:57;14.35;;;10.52;;
73650;SDS011;61944;52.538;6.108;2023-04-15T03:05:29;17.10;;;8.82;;
73650;SDS011;61944;52.538;6.108;2023-04-15T03:07:54;14.38;;;8.75;;
73650;SDS011;61944;52.538;6.108;2023-04-15T03:10:20;14.68;;;8.90;;
73650;SDS011;61944;52.538;6.108;2023-04-15T03:12:46;17.70;;;10.57;;
73650;SDS011;61944;52.538;6.108;2023-04-15T03:15:11;15.88;;;10.20;;
73650;SDS011;61944;52.538;6.108;2023-04-15T03:17:37;15.65;;;9.50;;
73650;SDS011;61944;52.538;6.108;2023-04-15T03:20:02;13.80;;;9.60;;
73650;SDS011;61944;52.538;6.108;2023-04-15T03:22:30;13.68;;;8.93;;
73650;SDS011;61944;52.538;6.108;2023-04-15T03:24:58;15.07;;;8.88;;
73650;SDS011;61944;52.538;6.108;2023-04-15T03:27:24;12.95;;;8.85;;
73650;SDS011;61944;52.538;6.108;2023-04-15T03:29:50;14.27;;;9.10;;
73650;SDS011;61944;52.538;6.108;2023-04-15T03:32:15;15.07;;;9.50;;
73650;SDS011;61944;52.538;6.108;2023-04-15T03:34:41;15.00;;;9.07;;
73650;SDS011;61944;52.538;6.108;2023-04-15T03:37:07;16.77;;;9.25;;
73650;SDS011;61944;52.538;6.108;2023-04-15T03:39:33;15.25;;;10.07;;
73650;SDS011;61944;52.538;6.108;2023-04-15T03:41:58;14.43;;;10.13;;
73650;SDS011;61944;52.538;6.108;2023-04-15T03:44:27;17.65;;;10.38;;
73650;SDS011;61944;52.538;6.108;2023-04-15T03:46:52;16.77;;;10.50;;
73650;SDS011;61944;52.538;6.108;2023-04-15T03:49:18;14.38;;;9.27;;
73650;SDS011;61944;52.538;6.108;2023-04-15T03:51:44;15.68;;;9.57;;
73650;SDS011;61944;52.538;6.108;2023-04-15T03:54:10;14.60;;;9.50;;
73650;SDS011;61944;52.538;6.108;2023-04-15T03:56:36;14.32;;;8.95;;
73650;SDS011;61944;52.538;6.108;2023-04-15T03:59:02;15.95;;;10.48;;
73650;SDS011;61944;52.538;6.108;2023-04-15T04:01:27;12.93;;;9.23;;
73650;SDS011;61944;52.538;6.108;2023-04-15T04:03:52;16.20;;;9.45;;
73650;SDS011;61944;52.538;6.108;2023-04-15T04:06:18;14.48;;;10.70;;
73650;SDS011;61944;52.538;6.108;2023-04-15T04:08:43;17.67;;;10.10;;
73650;SDS011;61944;52.538;6.108;2023-04-15T04:11:09;17.38;;;10.05;;
73650;SDS011;61944;52.538;6.108;2023-04-15T04:13:34;18.20;;;9.45;;
73650;SDS011;61944;52.538;6.108;2023-04-15T04:16:00;20.08;;;11.88;;
73650;SDS011;61944;52.538;6.108;2023-04-15T04:18:25;17.20;;;10.38;;
73650;SDS011;61944;52.538;6.108;2023-04-15T04:20:51;14.02;;;10.27;;
73650;SDS011;61944;52.538;6.108;2023-04-15T04:23:16;17.35;;;11.18;;
73650;SDS011;61944;52.538;6.108;2023-04-15T04:25:41;16.67;;;10.15;;
73650;SDS011;61944;52.538;6.108;2023-04-15T04:28:07;15.07;;;9.57;;
73650;SDS011;61944;52.538;6.108;2023-04-15T04:30:33;14.70;;;9.85;;
73650;SDS011;61944;52.538;6.108;2023-04-15T04:32:59;16.40;;;10.05;;
73650;SDS011;61944;52.538;6.108;2023-04-15T04:35:25;21.00;;;12.35;;
73650;SDS011;61944;52.538;6.108;2023-04-15T04:37:51;14.15;;;8.98;;
73650;SDS011;61944;52.538;6.108;2023-04-15T04:40:17;16.30;;;9.68;;
73650;SDS011;61944;52.538;6.108;2023-04-15T04:42:43;19.00;;;11.98;;
73650;SDS011;61944;52.538;6.108;2023-04-15T04:45:08;17.77;;;9.80;;
73650;SDS011;61944;52.538;6.108;2023-04-15T04:47:34;20.73;;;9.45;;
73650;SDS011;61944;52.538;6.108;2023-04-15T04:49:59;16.98;;;10.02;;
73650;SDS011;61944;52.538;6.108;2023-04-15T04:52:25;15.88;;;9.80;;
73650;SDS011;61944;52.538;6.108;2023-04-15T04:54:50;16.98;;;9.95;;
73650;SDS011;61944;52.538;6.108;2023-04-15T04:57:15;16.90;;;10.48;;
73650;SDS011;61944;52.538;6.108;2023-04-15T04:59:41;14.95;;;8.80;;
73650;SDS011;61944;52.538;6.108;2023-04-15T05:02:06;18.45;;;10.88;;
73650;SDS011;61944;52.538;6.108;2023-04-15T05:04:32;16.67;;;10.02;;
73650;SDS011;61944;52.538;6.108;2023-04-15T05:06:57;16.73;;;10.18;;
73650;SDS011;61944;52.538;6.108;2023-04-15T05:09:23;16.83;;;10.60;;
73650;SDS011;61944;52.538;6.108;2023-04-15T05:11:49;16.65;;;8.65;;
73650;SDS011;61944;52.538;6.108;2023-04-15T05:14:14;18.92;;;9.75;;
73650;SDS011;61944;52.538;6.108;2023-04-15T05:16:39;16.83;;;10.30;;
73650;SDS011;61944;52.538;6.108;2023-04-15T05:19:05;13.18;;;9.57;;
73650;SDS011;61944;52.538;6.108;2023-04-15T05:21:31;20.02;;;11.73;;
73650;SDS011;61944;52.538;6.108;2023-04-15T05:23:57;15.45;;;9.23;;
73650;SDS011;61944;52.538;6.108;2023-04-15T05:26:22;17.77;;;10.05;;
73650;SDS011;61944;52.538;6.108;2023-04-15T05:28:48;14.63;;;10.13;;
73650;SDS011;61944;52.538;6.108;2023-04-15T05:31:14;18.58;;;10.35;;
73650;SDS011;61944;52.538;6.108;2023-04-15T05:33:39;19.95;;;10.52;;
73650;SDS011;61944;52.538;6.108;2023-04-15T05:36:05;16.50;;;10.05;;
73650;SDS011;61944;52.538;6.108;2023-04-15T05:38:31;18.27;;;11.57;;
73650;SDS011;61944;52.538;6.108;2023-04-15T05:40:56;20.35;;;11.10;;
73650;SDS011;61944;52.538;6.108;2023-04-15T05:43:22;17.83;;;11.35;;
73650;SDS011;61944;52.538;6.108;2023-04-15T05:45:47;19.65;;;11.60;;
73650;SDS011;61944;52.538;6.108;2023-04-15T05:48:12;19.25;;;12.07;;
73650;SDS011;61944;52.538;6.108;2023-04-15T05:50:39;21.83;;;12.13;;
73650;SDS011;61944;52.538;6.108;2023-04-15T05:53:06;24.05;;;10.90;;
73650;SDS011;61944;52.538;6.108;2023-04-15T05:55:32;22.23;;;12.80;;
73650;SDS011;61944;52.538;6.108;2023-04-15T05:57:57;21.55;;;12.07;;
73650;SDS011;61944;52.538;6.108;2023-04-15T06:00:23;21.38;;;12.57;;
73650;SDS011;61944;52.538;6.108;2023-04-15T06:02:48;23.13;;;11.93;;
73650;SDS011;61944;52.538;6.108;2023-04-15T06:05:14;21.55;;;12.52;;
73650;SDS011;61944;52.538;6.108;2023-04-15T06:07:39;23.02;;;13.60;;
73650;SDS011;61944;52.538;6.108;2023-04-15T06:10:05;21.73;;;11.45;;
73650;SDS011;61944;52.538;6.108;2023-04-15T06:12:31;21.02;;;12.15;;
73650;SDS011;61944;52.538;6.108;2023-04-15T06:14:57;18.70;;;10.60;;
73650;SDS011;61944;52.538;6.108;2023-04-15T06:17:22;21.02;;;11.30;;
73650;SDS011;61944;52.538;6.108;2023-04-15T06:19:47;18.38;;;11.80;;
73650;SDS011;61944;52.538;6.108;2023-04-15T06:22:15;19.10;;;11.40;;
73650;SDS011;61944;52.538;6.108;2023-04-15T06:24:41;21.67;;;13.65;;
73650;SDS011;61944;52.538;6.108;2023-04-15T06:27:06;22.23;;;11.88;;
73650;SDS011;61944;52.538;6.108;2023-04-15T06:29:32;20.75;;;12.20;;
73650;SDS011;61944;52.538;6.108;2023-04-15T06:31:57;22.77;;;13.20;;
73650;SDS011;61944;52.538;6.108;2023-04-15T06:34:22;22.42;;;13.07;;
73650;SDS011;61944;52.538;6.108;2023-04-15T06:36:47;19.10;;;12.90;;
73650;SDS011;61944;52.538;6.108;2023-04-15T06:39:13;26.77;;;14.52;;
73650;SDS011;61944;52.538;6.108;2023-04-15T06:41:38;27.33;;;12.48;;
73650;SDS011;61944;52.538;6.108;2023-04-15T06:44:04;22.58;;;11.48;;
73650;SDS011;61944;52.538;6.108;2023-04-15T06:46:29;20.40;;;11.75;;
73650;SDS011;61944;52.538;6.108;2023-04-15T06:48:55;23.67;;;13.15;;
73650;SDS011;61944;52.538;6.108;2023-04-15T06:51:21;24.88;;;11.95;;
73650;SDS011;61944;52.538;6.108;2023-04-15T06:53:47;20.02;;;12.00;;
73650;SDS011;61944;52.538;6.108;2023-04-15T06:56:13;24.48;;;12.85;;
73650;SDS011;61944;52.538;6.108;2023-04-15T06:58:38;22.80;;;13.45;;
73650;SDS011;61944;52.538;6.108;2023-04-15T07:01:04;21.08;;;12.48;;
73650;SDS011;61944;52.538;6.108;2023-04-15T07:03:30;22.23;;;11.38;;
73650;SDS011;61944;52.538;6.108;2023-04-15T07:05:55;22.92;;;12.52;;
73650;SDS011;61944;52.538;6.108;2023-04-15T07:08:21;22.27;;;12.27;;
73650;SDS011;61944;52.538;6.108;2023-04-15T07:10:47;21.77;;;11.75;;
73650;SDS011;61944;52.538;6.108;2023-04-15T07:13:12;21.50;;;11.55;;
73650;SDS011;61944;52.538;6.108;2023-04-15T07:15:37;16.83;;;12.05;;
73650;SDS011;61944;52.538;6.108;2023-04-15T07:18:03;19.90;;;12.50;;
73650;SDS011;61944;52.538;6.108;2023-04-15T07:20:28;24.65;;;14.00;;
73650;SDS011;61944;52.538;6.108;2023-04-15T07:22:54;21.40;;;11.20;;
73650;SDS011;61944;52.538;6.108;2023-04-15T07:25:20;20.35;;;12.10;;
73650;SDS011;61944;52.538;6.108;2023-04-15T07:27:45;21.38;;;10.75;;
73650;SDS011;61944;52.538;6.108;2023-04-15T07:30:11;22.23;;;10.82;;
73650;SDS011;61944;52.538;6.108;2023-04-15T07:32:37;18.98;;;11.52;;
73650;SDS011;61944;52.538;6.108;2023-04-15T07:35:02;16.90;;;10.60;;
73650;SDS011;61944;52.538;6.108;2023-04-15T07:37:28;21.50;;;12.10;;
73650;SDS011;61944;52.538;6.108;2023-04-15T07:39:54;21.05;;;11.50;;
73650;SDS011;61944;52.538;6.108;2023-04-15T07:42:19;20.77;;;11.75;;
73650;SDS011;61944;52.538;6.108;2023-04-15T07:44:46;19.27;;;10.95;;
73650;SDS011;61944;52.538;6.108;2023-04-15T07:47:11;18.00;;;10.35;;
73650;SDS011;61944;52.538;6.108;2023-04-15T07:49:36;18.42;;;10.60;;
73650;SDS011;61944;52.538;6.108;2023-04-15T07:52:02;21.77;;;11.32;;
73650;SDS011;61944;52.538;6.108;2023-04-15T07:54:27;19.50;;;11.10;;
73650;SDS011;61944;52.538;6.108;2023-04-15T07:56:53;24.00;;;11.32;;
73650;SDS011;61944;52.538;6.108;2023-04-15T07:59:18;19.13;;;10.77;;
73650;SDS011;61944;52.538;6.108;2023-04-15T08:01:44;21.73;;;11.80;;
73650;SDS011;61944;52.538;6.108;2023-04-15T08:04:09;18.52;;;10.65;;
73650;SDS011;61944;52.538;6.108;2023-04-15T08:06:34;17.98;;;9.80;;
73650;SDS011;61944;52.538;6.108;2023-04-15T08:09:03;17.17;;;10.15;;
73650;SDS011;61944;52.538;6.108;2023-04-15T08:11:29;19.00;;;9.23;;
73650;SDS011;61944;52.538;6.108;2023-04-15T08:13:55;18.17;;;10.48;;
73650;SDS011;61944;52.538;6.108;2023-04-15T08:16:21;18.50;;;9.07;;
73650;SDS011;61944;52.538;6.108;2023-04-15T08:18:48;17.35;;;9.15;;
73650;SDS011;61944;52.538;6.108;2023-04-15T08:21:15;16.05;;;9.18;;
73650;SDS011;61944;52.538;6.108;2023-04-15T08:23:42;16.23;;;8.63;;
73650;SDS011;61944;52.538;6.108;2023-04-15T08:26:08;17.40;;;9.80;;
73650;SDS011;61944;52.538;6.108;2023-04-15T08:28:33;15.07;;;8.43;;
73650;SDS011;61944;52.538;6.108;2023-04-15T08:30:59;14.68;;;8.25;;
73650;SDS011;61944;52.538;6.108;2023-04-15T08:33:25;18.58;;;8.38;;
73650;SDS011;61944;52.538;6.108;2023-04-15T08:35:50;13.77;;;8.00;;
73650;SDS011;61944;52.538;6.108;2023-04-15T08:38:16;15.43;;;7.50;;
73650;SDS011;61944;52.538;6.108;2023-04-15T08:40:42;14.73;;;8.70;;
73650;SDS011;61944;52.538;6.108;2023-04-15T08:43:09;14.77;;;8.13;;
73650;SDS011;61944;52.538;6.108;2023-04-15T08:45:39;14.57;;;8.43;;
73650;SDS011;61944;52.538;6.108;2023-04-15T08:48:05;14.20;;;8.60;;
73650;SDS011;61944;52.538;6.108;2023-04-15T08:50:33;20.10;;;9.40;;
73650;SDS011;61944;52.538;6.108;2023-04-15T08:52:59;13.18;;;7.32;;
73650;SDS011;61944;52.538;6.108;2023-04-15T08:55:31;16.38;;;8.60;;
73650;SDS011;61944;52.538;6.108;2023-04-15T08:58:00;16.60;;;7.60;;
73650;SDS011;61944;52.538;6.108;2023-04-15T09:00:29;13.52;;;7.45;;
73650;SDS011;61944;52.538;6.108;2023-04-15T09:02:55;15.20;;;7.82;;
73650;SDS011;61944;52.538;6.108;2023-04-15T09:05:21;14.00;;;6.82;;
73650;SDS011;61944;52.538;6.108;2023-04-15T09:07:47;13.32;;;7.63;;
73650;SDS011;61944;52.538;6.108;2023-04-15T09:10:12;13.20;;;7.30;;
73650;SDS011;61944;52.538;6.108;2023-04-15T09:12:38;12.65;;;7.15;;
73650;SDS011;61944;52.538;6.108;2023-04-15T09:15:04;10.85;;;6.68;;
73650;SDS011;61944;52.538;6.108;2023-04-15T09:17:29;12.85;;;7.07;;
73650;SDS011;61944;52.538;6.108;2023-04-15T09:20:07;9.90;;;6.85;;
73650;SDS011;61944;52.538;6.108;2023-04-15T09:22:40;10.87;;;6.23;;
73650;SDS011;61944;52.538;6.108;2023-04-15T09:25:27;9.70;;;5.45;;
73650;SDS011;61944;52.538;6.108;2023-04-15T09:27:56;11.23;;;4.95;;
73650;SDS011;61944;52.538;6.108;2023-04-15T09:30:26;9.30;;;5.15;;
73650;SDS011;61944;52.538;6.108;2023-04-15T09:35:19;8.00;;;5.03;;
73650;SDS011;61944;52.538;6.108;2023-04-15T09:37:46;6.43;;;4.43;;
73650;SDS011;61944;52.538;6.108;2023-04-15T09:40:12;9.60;;;5.03;;
73650;SDS011;61944;52.538;6.108;2023-04-15T09:42:54;6.95;;;4.40;;
73650;SDS011;61944;52.538;6.108;2023-04-15T09:45:20;8.43;;;5.55;;
73650;SDS011;61944;52.538;6.108;2023-04-15T09:47:46;14.85;;;5.72;;
73650;SDS011;61944;52.538;6.108;2023-04-15T09:50:11;10.02;;;4.75;;
73650;SDS011;61944;52.538;6.108;2023-04-15T09:52:42;13.50;;;4.60;;
73650;SDS011;61944;52.538;6.108;2023-04-15T09:55:08;7.30;;;4.30;;
73650;SDS011;61944;52.538;6.108;2023-04-15T09:57:35;7.80;;;4.78;;
73650;SDS011;61944;52.538;6.108;2023-04-15T10:00:05;8.20;;;4.80;;
73650;SDS011;61944;52.538;6.108;2023-04-15T10:02:32;9.00;;;5.07;;
73650;SDS011;61944;52.538;6.108;2023-04-15T10:04:58;7.88;;;4.82;;
73650;SDS011;61944;52.538;6.108;2023-04-15T10:07:25;9.00;;;4.70;;
73650;SDS011;61944;52.538;6.108;2023-04-15T10:09:51;8.40;;;4.82;;
73650;SDS011;61944;52.538;6.108;2023-04-15T10:12:17;11.38;;;4.68;;
73650;SDS011;61944;52.538;6.108;2023-04-15T10:14:44;8.70;;;4.85;;
73650;SDS011;61944;52.538;6.108;2023-04-15T10:17:16;10.20;;;4.60;;
73650;SDS011;61944;52.538;6.108;2023-04-15T10:19:46;10.43;;;4.30;;
73650;SDS011;61944;52.538;6.108;2023-04-15T10:22:12;11.57;;;6.38;;
73650;SDS011;61944;52.538;6.108;2023-04-15T10:24:38;7.05;;;4.72;;
73650;SDS011;61944;52.538;6.108;2023-04-15T10:27:04;7.63;;;4.78;;
73650;SDS011;61944;52.538;6.108;2023-04-15T10:29:30;8.82;;;4.40;;
73650;SDS011;61944;52.538;6.108;2023-04-15T10:31:55;6.10;;;4.45;;
73650;SDS011;61944;52.538;6.108;2023-04-15T10:34:23;6.05;;;3.88;;
73650;SDS011;61944;52.538;6.108;2023-04-15T10:36:49;8.32;;;3.58;;
73650;SDS011;61944;52.538;6.108;2023-04-15T10:42:06;7.13;;;4.47;;
73650;SDS011;61944;52.538;6.108;2023-04-15T10:44:32;5.82;;;3.85;;
73650;SDS011;61944;52.538;6.108;2023-04-15T10:46:57;5.97;;;4.20;;
73650;SDS011;61944;52.538;6.108;2023-04-15T10:49:24;5.05;;;3.63;;
73650;SDS011;61944;52.538;6.108;2023-04-15T10:51:50;6.65;;;3.10;;
73650;SDS011;61944;52.538;6.108;2023-04-15T10:57:05;7.32;;;3.80;;
73650;SDS011;61944;52.538;6.108;2023-04-15T10:59:38;6.88;;;3.50;;
73650;SDS011;61944;52.538;6.108;2023-04-15T11:05:07;5.45;;;3.53;;
73650;SDS011;61944;52.538;6.108;2023-04-15T11:12:38;6.88;;;3.40;;
73650;SDS011;61944;52.538;6.108;2023-04-15T11:20:56;5.05;;;3.30;;
73650;SDS011;61944;52.538;6.108;2023-04-15T11:23:37;4.57;;;3.13;;
73650;SDS011;61944;52.538;6.108;2023-04-15T11:26:05;5.15;;;2.45;;
73650;SDS011;61944;52.538;6.108;2023-04-15T11:28:33;4.55;;;2.13;;
73650;SDS011;61944;52.538;6.108;2023-04-15T11:31:07;5.07;;;2.03;;
73650;SDS011;61944;52.538;6.108;2023-04-15T11:33:55;2.92;;;1.95;;
73650;SDS011;61944;52.538;6.108;2023-04-15T11:36:26;4.03;;;2.15;;
73650;SDS011;61944;52.538;6.108;2023-04-15T11:38:53;3.00;;;1.70;;
73650;SDS011;61944;52.538;6.108;2023-04-15T11:41:20;3.42;;;1.95;;
73650;SDS011;61944;52.538;6.108;2023-04-15T11:43:46;2.47;;;1.42;;
73650;SDS011;61944;52.538;6.108;2023-04-15T11:46:11;5.03;;;1.92;;
73650;SDS011;61944;52.538;6.108;2023-04-15T11:48:40;2.88;;;2.00;;
73650;SDS011;61944;52.538;6.108;2023-04-15T11:51:08;3.90;;;1.85;;
73650;SDS011;61944;52.538;6.108;2023-04-15T11:56:07;3.72;;;1.60;;
73650;SDS011;61944;52.538;6.108;2023-04-15T11:58:34;5.82;;;1.80;;
73650;SDS011;61944;52.538;6.108;2023-04-15T12:01:04;2.67;;;1.88;;
73650;SDS011;61944;52.538;6.108;2023-04-15T12:03:40;3.10;;;2.15;;
73650;SDS011;61944;52.538;6.108;2023-04-15T12:11:49;4.22;;;2.10;;
73650;SDS011;61944;52.538;6.108;2023-04-15T12:14:21;2.35;;;2.00;;
73650;SDS011;61944;52.538;6.108;2023-04-15T12:16:50;5.88;;;2.25;;
73650;SDS011;61944;52.538;6.108;2023-04-15T12:19:24;6.55;;;2.25;;
73650;SDS011;61944;52.538;6.108;2023-04-15T12:21:52;5.15;;;2.10;;
73650;SDS011;61944;52.538;6.108;2023-04-15T12:24:22;1.90;;;1.70;;
73650;SDS011;61944;52.538;6.108;2023-04-15T12:26:49;3.38;;;1.80;;
73650;SDS011;61944;52.538;6.108;2023-04-15T12:29:17;3.20;;;1.70;;
73650;SDS011;61944;52.538;6.108;2023-04-15T12:31:49;3.22;;;1.95;;
73650;SDS011;61944;52.538;6.108;2023-04-15T12:34:16;4.57;;;2.00;;
73650;SDS011;61944;52.538;6.108;2023-04-15T12:36:43;3.95;;;2.15;;
73650;SDS011;61944;52.538;6.108;2023-04-15T12:39:09;3.72;;;2.03;;
73650;SDS011;61944;52.538;6.108;2023-04-15T12:41:34;4.07;;;2.15;;
73650;SDS011;61944;52.538;6.108;2023-04-15T12:44:00;4.97;;;2.00;;
73650;SDS011;61944;52.538;6.108;2023-04-15T12:46:25;3.42;;;2.17;;
73650;SDS011;61944;52.538;6.108;2023-04-15T12:48:51;5.47;;;2.20;;
73650;SDS011;61944;52.538;6.108;2023-04-15T12:51:18;6.72;;;3.33;;
73650;SDS011;61944;52.538;6.108;2023-04-15T12:53:45;4.97;;;2.13;;
73650;SDS011;61944;52.538;6.108;2023-04-15T12:56:12;3.70;;;2.50;;
73650;SDS011;61944;52.538;6.108;2023-04-15T12:58:37;4.07;;;2.00;;
73650;SDS011;61944;52.538;6.108;2023-04-15T13:01:03;5.97;;;2.97;;
73650;SDS011;61944;52.538;6.108;2023-04-15T13:03:28;2.85;;;2.20;;
73650;SDS011;61944;52.538;6.108;2023-04-15T13:05:54;4.57;;;2.50;;
73650;SDS011;61944;52.538;6.108;2023-04-15T13:08:19;4.30;;;2.40;;
73650;SDS011;61944;52.538;6.108;2023-04-15T13:10:45;5.05;;;2.00;;
73650;SDS011;61944;52.538;6.108;2023-04-15T13:13:10;6.57;;;3.15;;
73650;SDS011;61944;52.538;6.108;2023-04-15T13:15:36;7.57;;;3.22;;
73650;SDS011;61944;52.538;6.108;2023-04-15T13:18:02;7.03;;;2.67;;
73650;SDS011;61944;52.538;6.108;2023-04-15T13:20:29;5.93;;;3.05;;
73650;SDS011;61944;52.538;6.108;2023-04-15T13:22:54;6.80;;;2.78;;
73650;SDS011;61944;52.538;6.108;2023-04-15T13:25:20;4.78;;;2.40;;
73650;SDS011;61944;52.538;6.108;2023-04-15T13:27:45;5.95;;;2.97;;
73650;SDS011;61944;52.538;6.108;2023-04-15T13:30:11;7.13;;;2.65;;
73650;SDS011;61944;52.538;6.108;2023-04-15T13:32:37;4.80;;;2.63;;
73650;SDS011;61944;52.538;6.108;2023-04-15T13:35:02;3.90;;;2.58;;
73650;SDS011;61944;52.538;6.108;2023-04-15T13:37:29;8.85;;;3.20;;
73650;SDS011;61944;52.538;6.108;2023-04-15T13:39:54;8.15;;;2.40;;
73650;SDS011;61944;52.538;6.108;2023-04-15T13:42:23;6.03;;;2.80;;
73650;SDS011;61944;52.538;6.108;2023-04-15T13:44:49;5.82;;;2.08;;
73650;SDS011;61944;52.538;6.108;2023-04-15T13:47:18;6.55;;;2.58;;
73650;SDS011;61944;52.538;6.108;2023-04-15T13:49:43;2.20;;;1.60;;
73650;SDS011;61944;52.538;6.108;2023-04-15T13:52:09;9.13;;;2.25;;
73650;SDS011;61944;52.538;6.108;2023-04-15T13:54:35;8.25;;;2.60;;
73650;SDS011;61944;52.538;6.108;2023-04-15T13:57:00;4.65;;;2.30;;
73650;SDS011;61944;52.538;6.108;2023-04-15T13:59:26;4.47;;;2.47;;
73650;SDS011;61944;52.538;6.108;2023-04-15T14:01:51;4.80;;;3.08;;
73650;SDS011;61944;52.538;6.108;2023-04-15T14:04:17;6.00;;;2.25;;
73650;SDS011;61944;52.538;6.108;2023-04-15T14:06:43;11.02;;;2.70;;
73650;SDS011;61944;52.538;6.108;2023-04-15T14:09:09;9.32;;;2.95;;
73650;SDS011;61944;52.538;6.108;2023-04-15T14:11:34;6.07;;;2.33;;
73650;SDS011;61944;52.538;6.108;2023-04-15T14:14:00;6.53;;;3.20;;
73650;SDS011;61944;52.538;6.108;2023-04-15T14:16:26;6.68;;;2.38;;
73650;SDS011;61944;52.538;6.108;2023-04-15T14:18:51;9.30;;;2.75;;
73650;SDS011;61944;52.538;6.108;2023-04-15T14:21:17;6.38;;;3.10;;
73650;SDS011;61944;52.538;6.108;2023-04-15T14:23:43;7.50;;;2.38;;
73650;SDS011;61944;52.538;6.108;2023-04-15T14:26:08;11.07;;;3.30;;
73650;SDS011;61944;52.538;6.108;2023-04-15T14:28:33;6.53;;;2.38;;
73650;SDS011;61944;52.538;6.108;2023-04-15T14:30:59;6.72;;;2.58;;
73650;SDS011;61944;52.538;6.108;2023-04-15T14:33:25;5.68;;;3.13;;
73650;SDS011;61944;52.538;6.108;2023-04-15T14:35:50;9.90;;;2.33;;
73650;SDS011;61944;52.538;6.108;2023-04-15T14:38:16;6.47;;;1.80;;
73650;SDS011;61944;52.538;6.108;2023-04-15T14:40:41;5.55;;;1.98;;
73650;SDS011;61944;52.538;6.108;2023-04-15T14:43:06;10.40;;;2.33;;
73650;SDS011;61944;52.538;6.108;2023-04-15T14:45:32;2.83;;;2.00;;
73650;SDS011;61944;52.538;6.108;2023-04-15T14:47:58;9.90;;;2.55;;
73650;SDS011;61944;52.538;6.108;2023-04-15T14:50:23;12.73;;;2.58;;
73650;SDS011;61944;52.538;6.108;2023-04-15T14:52:49;7.80;;;1.77;;
73650;SDS011;61944;52.538;6.108;2023-04-15T14:55:14;9.10;;;2.35;;
73650;SDS011;61944;52.538;6.108;2023-04-15T14:57:40;4.30;;;2.40;;
73650;SDS011;61944;52.538;6.108;2023-04-15T15:00:06;6.80;;;2.22;;